sensor_id;sensor_type;location;lat;lon;timestamp;pressure;altitude;pressure_sealevel;temperature;humidity
3598;BME280;1813;52.016;8.714;2022-12-26T00:01:06;-16261.94;;;-139.71;91.93
3598;BME280;1813;52.016;8.714;2022-12-26T00:03:43;-16261.94;;;-139.71;91.75
3598;BME280;1813;52.016;8.714;2022-12-26T00:06:18;-16261.94;;;-139.71;91.59
3598;BME280;1813;52.016;8.714;2022-12-26T00:08:53;-16261.94;;;-139.71;91.56
3598;BME280;1813;52.016;8.714;2022-12-26T00:11:27;-16261.94;;;-139.71;91.54
3598;BME280;1813;52.016;8.714;2022-12-26T00:14:03;-16261.94;;;-139.71;91.55
3598;BME280;1813;52.016;8.714;2022-12-26T00:16:39;-16261.94;;;-139.71;91.73
3598;BME280;1813;52.016;8.714;2022-12-26T00:19:16;-16261.94;;;-139.71;91.63
3598;BME280;1813;52.016;8.714;2022-12-26T00:21:49;-16261.94;;;-139.71;91.62
3598;BME280;1813;52.016;8.714;2022-12-26T00:24:23;-16261.94;;;-139.71;91.65
3598;BME280;1813;52.016;8.714;2022-12-26T00:26:57;-16261.94;;;-139.71;91.69
3598;BME280;1813;52.016;8.714;2022-12-26T00:29:30;-16261.94;;;-139.71;91.49
3598;BME280;1813;52.016;8.714;2022-12-26T00:32:04;-16261.94;;;-139.71;91.54
3598;BME280;1813;52.016;8.714;2022-12-26T00:34:40;-16261.94;;;-139.71;91.50
3598;BME280;1813;52.016;8.714;2022-12-26T00:37:14;-16261.94;;;-139.71;91.67
3598;BME280;1813;52.016;8.714;2022-12-26T00:39:48;-16261.94;;;-139.71;91.73
3598;BME280;1813;52.016;8.714;2022-12-26T00:42:21;-16261.94;;;-139.71;91.63
3598;BME280;1813;52.016;8.714;2022-12-26T00:44:55;-16261.94;;;-139.71;91.71
3598;BME280;1813;52.016;8.714;2022-12-26T00:47:28;-16261.94;;;-139.71;91.57
3598;BME280;1813;52.016;8.714;2022-12-26T00:50:06;-16261.94;;;-139.71;91.54
3598;BME280;1813;52.016;8.714;2022-12-26T00:52:39;-16261.94;;;-139.71;91.46
3598;BME280;1813;52.016;8.714;2022-12-26T00:55:13;-16261.94;;;-139.71;91.45
3598;BME280;1813;52.016;8.714;2022-12-26T00:57:47;-16261.94;;;-139.71;91.14
3598;BME280;1813;52.016;8.714;2022-12-26T01:00:21;-16261.94;;;-139.71;91.19
3598;BME280;1813;52.016;8.714;2022-12-26T01:02:54;-16261.94;;;-139.71;90.88
3598;BME280;1813;52.016;8.714;2022-12-26T01:05:30;-16261.94;;;-139.71;90.91
3598;BME280;1813;52.016;8.714;2022-12-26T01:08:04;-16261.94;;;-139.71;90.94
3598;BME280;1813;52.016;8.714;2022-12-26T01:10:39;-16261.94;;;-139.71;90.86
3598;BME280;1813;52.016;8.714;2022-12-26T01:13:16;-16261.94;;;-139.71;90.72
3598;BME280;1813;52.016;8.714;2022-12-26T01:15:51;-16261.94;;;-139.71;90.62
3598;BME280;1813;52.016;8.714;2022-12-26T01:18:25;-16261.94;;;-139.71;90.51
3598;BME280;1813;52.016;8.714;2022-12-26T01:21:05;-16261.94;;;-139.71;90.33
3598;BME280;1813;52.016;8.714;2022-12-26T01:23:39;-16261.94;;;-139.71;90.59
3598;BME280;1813;52.016;8.714;2022-12-26T01:26:13;-16261.94;;;-139.71;90.54
3598;BME280;1813;52.016;8.714;2022-12-26T01:28:47;-16261.94;;;-139.71;90.51
3598;BME280;1813;52.016;8.714;2022-12-26T01:31:22;-16261.94;;;-139.71;90.49
3598;BME280;1813;52.016;8.714;2022-12-26T01:33:56;-16261.94;;;-139.71;90.44
3598;BME280;1813;52.016;8.714;2022-12-26T01:36:32;-16261.94;;;-139.71;90.38
3598;BME280;1813;52.016;8.714;2022-12-26T01:39:06;-16261.94;;;-139.71;90.34
3598;BME280;1813;52.016;8.714;2022-12-26T01:41:40;-16261.94;;;-139.71;90.36
3598;BME280;1813;52.016;8.714;2022-12-26T01:44:53;-16261.94;;;-139.71;90.50
3598;BME280;1813;52.016;8.714;2022-12-26T01:47:42;-16261.94;;;-139.71;90.33
3598;BME280;1813;52.016;8.714;2022-12-26T01:50:39;-16261.94;;;-139.71;90.42
3598;BME280;1813;52.016;8.714;2022-12-26T01:53:18;-16261.94;;;-139.71;90.29
3598;BME280;1813;52.016;8.714;2022-12-26T01:55:57;-16261.94;;;-139.71;90.27
3598;BME280;1813;52.016;8.714;2022-12-26T01:58:36;-16261.94;;;-139.71;90.28
3598;BME280;1813;52.016;8.714;2022-12-26T02:01:12;-16261.94;;;-139.71;90.22
3598;BME280;1813;52.016;8.714;2022-12-26T02:03:47;-16261.94;;;-139.71;90.09
3598;BME280;1813;52.016;8.714;2022-12-26T02:06:33;-16261.94;;;-139.71;90.13
3598;BME280;1813;52.016;8.714;2022-12-26T02:09:10;-16261.94;;;-139.71;90.09
3598;BME280;1813;52.016;8.714;2022-12-26T02:11:48;-16261.94;;;-139.71;90.09
3598;BME280;1813;52.016;8.714;2022-12-26T02:14:24;-16261.94;;;-139.71;90.19
3598;BME280;1813;52.016;8.714;2022-12-26T02:16:58;-16261.94;;;-139.71;90.14
3598;BME280;1813;52.016;8.714;2022-12-26T02:19:38;-16261.94;;;-139.71;90.15
3598;BME280;1813;52.016;8.714;2022-12-26T02:22:40;-16261.94;;;-139.71;90.18
3598;BME280;1813;52.016;8.714;2022-12-26T02:25:32;-16261.94;;;-139.71;90.01
3598;BME280;1813;52.016;8.714;2022-12-26T02:28:27;-16261.94;;;-139.71;89.98
3598;BME280;1813;52.016;8.714;2022-12-26T02:31:11;-16261.94;;;-139.71;89.88
3598;BME280;1813;52.016;8.714;2022-12-26T02:33:55;-16261.94;;;-139.71;89.71
3598;BME280;1813;52.016;8.714;2022-12-26T02:36:49;-16261.94;;;-139.71;89.60
3598;BME280;1813;52.016;8.714;2022-12-26T02:39:37;-16261.94;;;-139.71;89.45
3598;BME280;1813;52.016;8.714;2022-12-26T02:42:23;-16261.94;;;-139.71;89.40
3598;BME280;1813;52.016;8.714;2022-12-26T02:45:05;-16261.94;;;-139.71;89.50
3598;BME280;1813;52.016;8.714;2022-12-26T02:48:12;-16261.94;;;-139.71;89.45
3598;BME280;1813;52.016;8.714;2022-12-26T02:51:00;-16261.94;;;-139.71;89.50
3598;BME280;1813;52.016;8.714;2022-12-26T02:53:52;-16261.94;;;-139.71;89.58
3598;BME280;1813;52.016;8.714;2022-12-26T02:56:48;-16261.94;;;-139.71;89.53
3598;BME280;1813;52.016;8.714;2022-12-26T02:59:42;-16261.94;;;-139.71;89.95
3598;BME280;1813;52.016;8.714;2022-12-26T03:02:35;-16261.94;;;-139.71;89.99
3598;BME280;1813;52.016;8.714;2022-12-26T03:05:28;-16261.94;;;-139.71;89.83
3598;BME280;1813;52.016;8.714;2022-12-26T03:08:20;-16261.94;;;-139.71;90.00
3598;BME280;1813;52.016;8.714;2022-12-26T03:11:09;-16261.94;;;-139.71;90.30
3598;BME280;1813;52.016;8.714;2022-12-26T03:14:05;-16261.94;;;-139.71;90.33
3598;BME280;1813;52.016;8.714;2022-12-26T03:16:40;-16261.94;;;-139.71;90.41
3598;BME280;1813;52.016;8.714;2022-12-26T03:19:28;-16261.94;;;-139.71;90.77
3598;BME280;1813;52.016;8.714;2022-12-26T03:22:08;-16261.94;;;-139.71;90.75
3598;BME280;1813;52.016;8.714;2022-12-26T03:25:03;-16261.94;;;-139.71;90.77
3598;BME280;1813;52.016;8.714;2022-12-26T03:27:49;-16261.94;;;-139.71;90.80
3598;BME280;1813;52.016;8.714;2022-12-26T03:30:24;-16261.94;;;-139.71;90.74
3598;BME280;1813;52.016;8.714;2022-12-26T03:33:10;-16261.94;;;-139.71;90.77
3598;BME280;1813;52.016;8.714;2022-12-26T03:35:56;-16261.94;;;-139.71;90.84
3598;BME280;1813;52.016;8.714;2022-12-26T03:38:39;-16261.94;;;-139.71;90.89
3598;BME280;1813;52.016;8.714;2022-12-26T03:41:25;-16261.94;;;-139.71;90.94
3598;BME280;1813;52.016;8.714;2022-12-26T03:44:24;-16261.94;;;-139.71;90.89
3598;BME280;1813;52.016;8.714;2022-12-26T03:47:18;-16261.94;;;-139.71;90.96
3598;BME280;1813;52.016;8.714;2022-12-26T03:50:14;-16261.94;;;-139.71;90.80
3598;BME280;1813;52.016;8.714;2022-12-26T03:53:06;-16261.94;;;-139.71;90.67
3598;BME280;1813;52.016;8.714;2022-12-26T03:56:02;-16261.94;;;-139.71;90.79
3598;BME280;1813;52.016;8.714;2022-12-26T03:58:56;-16261.94;;;-139.71;90.69
3598;BME280;1813;52.016;8.714;2022-12-26T04:01:45;-16261.94;;;-139.71;90.80
3598;BME280;1813;52.016;8.714;2022-12-26T04:04:35;-16261.94;;;-139.71;90.61
3598;BME280;1813;52.016;8.714;2022-12-26T04:07:27;-16261.94;;;-139.71;90.37
3598;BME280;1813;52.016;8.714;2022-12-26T04:10:17;-16261.94;;;-139.71;90.26
3598;BME280;1813;52.016;8.714;2022-12-26T04:13:14;-16261.94;;;-139.71;89.99
3598;BME280;1813;52.016;8.714;2022-12-26T04:16:12;-16261.94;;;-139.71;89.81
3598;BME280;1813;52.016;8.714;2022-12-26T04:19:10;-16261.94;;;-139.71;89.66
3598;BME280;1813;52.016;8.714;2022-12-26T04:22:03;-16261.94;;;-139.71;89.73
3598;BME280;1813;52.016;8.714;2022-12-26T04:24:55;-16261.94;;;-139.71;89.54
3598;BME280;1813;52.016;8.714;2022-12-26T04:27:44;-16261.94;;;-139.71;89.57
3598;BME280;1813;52.016;8.714;2022-12-26T04:30:36;-16261.94;;;-139.71;89.45
3598;BME280;1813;52.016;8.714;2022-12-26T04:33:26;-16261.94;;;-139.71;89.31
3598;BME280;1813;52.016;8.714;2022-12-26T04:36:18;-16261.94;;;-139.71;89.44
3598;BME280;1813;52.016;8.714;2022-12-26T04:39:09;-16261.94;;;-139.71;89.31
3598;BME280;1813;52.016;8.714;2022-12-26T04:41:57;-16261.94;;;-139.71;89.34
3598;BME280;1813;52.016;8.714;2022-12-26T04:44:45;-16261.94;;;-139.71;89.16
3598;BME280;1813;52.016;8.714;2022-12-26T04:47:23;-16261.94;;;-139.71;89.27
3598;BME280;1813;52.016;8.714;2022-12-26T04:49:58;-16261.94;;;-139.71;89.08
3598;BME280;1813;52.016;8.714;2022-12-26T04:52:43;-16261.94;;;-139.71;88.98
3598;BME280;1813;52.016;8.714;2022-12-26T04:55:32;-16261.94;;;-139.71;89.00
3598;BME280;1813;52.016;8.714;2022-12-26T04:58:07;-16261.94;;;-139.71;88.83
3598;BME280;1813;52.016;8.714;2022-12-26T05:00:41;-16261.94;;;-139.71;88.73
3598;BME280;1813;52.016;8.714;2022-12-26T05:03:17;-16261.94;;;-139.71;88.55
3598;BME280;1813;52.016;8.714;2022-12-26T05:06:04;-16261.94;;;-139.71;88.49
3598;BME280;1813;52.016;8.714;2022-12-26T05:08:50;-16261.94;;;-139.71;88.24
3598;BME280;1813;52.016;8.714;2022-12-26T05:11:36;-16261.94;;;-139.71;88.42
3598;BME280;1813;52.016;8.714;2022-12-26T05:14:12;-16261.94;;;-139.71;88.32
3598;BME280;1813;52.016;8.714;2022-12-26T05:16:46;-16261.94;;;-139.71;88.27
3598;BME280;1813;52.016;8.714;2022-12-26T05:19:35;-16261.94;;;-139.71;88.23
3598;BME280;1813;52.016;8.714;2022-12-26T05:22:22;-16261.94;;;-139.71;88.13
3598;BME280;1813;52.016;8.714;2022-12-26T05:25:12;-16261.94;;;-139.71;88.18
3598;BME280;1813;52.016;8.714;2022-12-26T05:28:07;-16261.94;;;-139.71;88.02
3598;BME280;1813;52.016;8.714;2022-12-26T05:30:55;-16261.94;;;-139.71;87.92
3598;BME280;1813;52.016;8.714;2022-12-26T05:33:29;-16261.94;;;-139.71;87.95
3598;BME280;1813;52.016;8.714;2022-12-26T05:36:19;-16261.94;;;-139.71;87.75
3598;BME280;1813;52.016;8.714;2022-12-26T05:38:54;-16261.94;;;-139.71;87.81
3598;BME280;1813;52.016;8.714;2022-12-26T05:41:28;-16261.94;;;-139.71;87.76
3598;BME280;1813;52.016;8.714;2022-12-26T05:44:03;-16261.94;;;-139.71;87.56
3598;BME280;1813;52.016;8.714;2022-12-26T05:46:38;-16261.94;;;-139.71;87.55
3598;BME280;1813;52.016;8.714;2022-12-26T05:49:12;-16261.94;;;-139.71;87.40
3598;BME280;1813;52.016;8.714;2022-12-26T05:51:49;-16261.94;;;-139.71;87.32
3598;BME280;1813;52.016;8.714;2022-12-26T05:54:23;-16261.94;;;-139.71;87.20
3598;BME280;1813;52.016;8.714;2022-12-26T05:56:57;-16261.94;;;-139.71;86.96
3598;BME280;1813;52.016;8.714;2022-12-26T05:59:31;-16261.94;;;-139.71;86.65
3598;BME280;1813;52.016;8.714;2022-12-26T06:02:05;-16261.94;;;-139.71;86.60
3598;BME280;1813;52.016;8.714;2022-12-26T06:04:39;-16261.94;;;-139.71;86.34
3598;BME280;1813;52.016;8.714;2022-12-26T06:07:15;-16261.94;;;-139.71;86.34
3598;BME280;1813;52.016;8.714;2022-12-26T06:09:49;-16261.94;;;-139.71;86.40
3598;BME280;1813;52.016;8.714;2022-12-26T06:12:23;-16261.94;;;-139.71;86.25
3598;BME280;1813;52.016;8.714;2022-12-26T06:14:57;-16261.94;;;-139.71;86.20
3598;BME280;1813;52.016;8.714;2022-12-26T06:17:31;-16261.94;;;-139.71;86.31
3598;BME280;1813;52.016;8.714;2022-12-26T06:20:06;-16261.94;;;-139.71;86.14
3598;BME280;1813;52.016;8.714;2022-12-26T06:22:43;-16261.94;;;-139.71;86.29
3598;BME280;1813;52.016;8.714;2022-12-26T06:25:17;-16261.94;;;-139.71;86.27
3598;BME280;1813;52.016;8.714;2022-12-26T06:27:51;-16261.94;;;-139.71;86.25
3598;BME280;1813;52.016;8.714;2022-12-26T06:30:25;-16261.94;;;-139.71;86.34
3598;BME280;1813;52.016;8.714;2022-12-26T06:32:58;-16261.94;;;-139.71;86.01
3598;BME280;1813;52.016;8.714;2022-12-26T06:35:32;-16261.94;;;-139.71;85.93
3598;BME280;1813;52.016;8.714;2022-12-26T06:38:09;-16261.94;;;-139.71;85.89
3598;BME280;1813;52.016;8.714;2022-12-26T06:40:43;-16261.94;;;-139.71;85.66
3598;BME280;1813;52.016;8.714;2022-12-26T06:43:17;-16261.94;;;-139.71;85.59
3598;BME280;1813;52.016;8.714;2022-12-26T06:45:54;-16261.94;;;-139.71;85.47
3598;BME280;1813;52.016;8.714;2022-12-26T06:48:28;-16261.94;;;-139.71;85.77
3598;BME280;1813;52.016;8.714;2022-12-26T06:51:03;-16261.94;;;-139.71;85.76
3598;BME280;1813;52.016;8.714;2022-12-26T06:53:40;-16261.94;;;-139.71;85.64
3598;BME280;1813;52.016;8.714;2022-12-26T06:56:16;-16261.94;;;-139.71;85.86
3598;BME280;1813;52.016;8.714;2022-12-26T06:58:51;-16261.94;;;-139.71;85.73
3598;BME280;1813;52.016;8.714;2022-12-26T07:01:27;-16261.94;;;-139.71;85.79
3598;BME280;1813;52.016;8.714;2022-12-26T07:04:02;-16261.94;;;-139.71;85.85
3598;BME280;1813;52.016;8.714;2022-12-26T07:06:37;-16261.94;;;-139.71;85.89
3598;BME280;1813;52.016;8.714;2022-12-26T07:09:15;-16261.94;;;-139.71;86.11
3598;BME280;1813;52.016;8.714;2022-12-26T07:11:49;-16261.94;;;-139.71;86.02
3598;BME280;1813;52.016;8.714;2022-12-26T07:14:24;-16261.94;;;-139.71;86.25
3598;BME280;1813;52.016;8.714;2022-12-26T07:16:58;-16261.94;;;-139.71;86.31
3598;BME280;1813;52.016;8.714;2022-12-26T07:19:31;-16261.94;;;-139.71;86.23
3598;BME280;1813;52.016;8.714;2022-12-26T07:22:05;-16261.94;;;-139.71;86.40
3598;BME280;1813;52.016;8.714;2022-12-26T07:24:42;-16261.94;;;-139.71;86.32
3598;BME280;1813;52.016;8.714;2022-12-26T07:27:16;-16261.94;;;-139.71;86.29
3598;BME280;1813;52.016;8.714;2022-12-26T07:29:50;-16261.94;;;-139.71;86.40
3598;BME280;1813;52.016;8.714;2022-12-26T07:32:24;-16261.94;;;-139.71;86.64
3598;BME280;1813;52.016;8.714;2022-12-26T07:34:59;-16261.94;;;-139.71;86.82
3598;BME280;1813;52.016;8.714;2022-12-26T07:37:33;-16261.94;;;-139.71;86.71
3598;BME280;1813;52.016;8.714;2022-12-26T07:40:11;-16261.94;;;-139.71;86.44
3598;BME280;1813;52.016;8.714;2022-12-26T07:42:45;-16261.94;;;-139.71;86.44
3598;BME280;1813;52.016;8.714;2022-12-26T07:45:19;-16261.94;;;-139.71;86.27
3598;BME280;1813;52.016;8.714;2022-12-26T07:47:53;-16261.94;;;-139.71;86.21
3598;BME280;1813;52.016;8.714;2022-12-26T07:50:27;-16261.94;;;-139.71;86.02
3598;BME280;1813;52.016;8.714;2022-12-26T07:53:01;-16261.94;;;-139.71;85.92
3598;BME280;1813;52.016;8.714;2022-12-26T07:55:37;-16261.94;;;-139.71;85.54
3598;BME280;1813;52.016;8.714;2022-12-26T07:58:11;-16261.94;;;-139.71;85.32
3598;BME280;1813;52.016;8.714;2022-12-26T08:00:45;-16261.94;;;-139.71;85.40
3598;BME280;1813;52.016;8.714;2022-12-26T08:03:19;-16261.94;;;-139.71;85.26
3598;BME280;1813;52.016;8.714;2022-12-26T08:05:53;-16261.94;;;-139.71;85.49
3598;BME280;1813;52.016;8.714;2022-12-26T08:08:27;-16261.94;;;-139.71;85.48
3598;BME280;1813;52.016;8.714;2022-12-26T08:11:05;-16261.94;;;-139.71;85.36
3598;BME280;1813;52.016;8.714;2022-12-26T08:13:40;-16261.94;;;-139.71;85.64
3598;BME280;1813;52.016;8.714;2022-12-26T08:16:14;-16261.94;;;-139.71;85.82
3598;BME280;1813;52.016;8.714;2022-12-26T08:18:48;-16261.94;;;-139.71;85.75
3598;BME280;1813;52.016;8.714;2022-12-26T08:21:22;-16261.94;;;-139.71;85.87
3598;BME280;1813;52.016;8.714;2022-12-26T08:23:55;-16261.94;;;-139.71;85.88
3598;BME280;1813;52.016;8.714;2022-12-26T08:26:32;-16261.94;;;-139.71;85.95
3598;BME280;1813;52.016;8.714;2022-12-26T08:29:06;-16261.94;;;-139.71;86.24
3598;BME280;1813;52.016;8.714;2022-12-26T08:31:40;-16261.94;;;-139.71;86.08
3598;BME280;1813;52.016;8.714;2022-12-26T08:34:14;-16261.94;;;-139.71;86.24
3598;BME280;1813;52.016;8.714;2022-12-26T08:36:49;-16261.94;;;-139.71;86.12
3598;BME280;1813;52.016;8.714;2022-12-26T08:39:23;-16261.94;;;-139.71;86.16
3598;BME280;1813;52.016;8.714;2022-12-26T08:42:00;-16261.94;;;-139.71;86.02
3598;BME280;1813;52.016;8.714;2022-12-26T08:44:33;-16261.94;;;-139.71;85.93
3598;BME280;1813;52.016;8.714;2022-12-26T08:47:07;-16261.94;;;-139.71;85.95
3598;BME280;1813;52.016;8.714;2022-12-26T08:49:41;-16261.94;;;-139.71;85.83
3598;BME280;1813;52.016;8.714;2022-12-26T08:52:15;-16261.94;;;-139.71;85.61
3598;BME280;1813;52.016;8.714;2022-12-26T08:54:49;-16261.94;;;-139.71;85.37
3598;BME280;1813;52.016;8.714;2022-12-26T08:57:25;-16261.94;;;-139.71;85.51
3598;BME280;1813;52.016;8.714;2022-12-26T08:59:59;-16261.94;;;-139.71;85.36
3598;BME280;1813;52.016;8.714;2022-12-26T09:02:34;-16261.94;;;-139.71;85.36
3598;BME280;1813;52.016;8.714;2022-12-26T09:05:08;-16261.94;;;-139.71;85.36
3598;BME280;1813;52.016;8.714;2022-12-26T09:07:42;-16261.94;;;-139.71;85.21
3598;BME280;1813;52.016;8.714;2022-12-26T09:10:16;-16261.94;;;-139.71;85.22
3598;BME280;1813;52.016;8.714;2022-12-26T09:12:52;-16261.94;;;-139.71;85.01
3598;BME280;1813;52.016;8.714;2022-12-26T09:15:26;-16261.94;;;-139.71;84.96
3598;BME280;1813;52.016;8.714;2022-12-26T09:18:00;-16261.94;;;-139.71;84.92
3598;BME280;1813;52.016;8.714;2022-12-26T09:20:34;-16261.94;;;-139.71;85.11
3598;BME280;1813;52.016;8.714;2022-12-26T09:23:08;-16261.94;;;-139.71;85.03
3598;BME280;1813;52.016;8.714;2022-12-26T09:25:44;-16261.94;;;-139.71;85.09
3598;BME280;1813;52.016;8.714;2022-12-26T09:28:21;-16261.94;;;-139.71;85.15
3598;BME280;1813;52.016;8.714;2022-12-26T09:30:58;-16261.94;;;-139.71;85.12
3598;BME280;1813;52.016;8.714;2022-12-26T09:33:33;-16261.94;;;-139.71;85.27
3598;BME280;1813;52.016;8.714;2022-12-26T09:36:09;-16261.94;;;-139.71;85.16
3598;BME280;1813;52.016;8.714;2022-12-26T09:38:45;-16261.94;;;-139.71;85.00
3598;BME280;1813;52.016;8.714;2022-12-26T09:41:31;-16261.94;;;-139.71;85.06
3598;BME280;1813;52.016;8.714;2022-12-26T09:44:15;-16261.94;;;-139.71;85.20
3598;BME280;1813;52.016;8.714;2022-12-26T09:46:57;-16261.94;;;-139.71;85.06
3598;BME280;1813;52.016;8.714;2022-12-26T09:49:36;-16261.94;;;-139.71;84.92
3598;BME280;1813;52.016;8.714;2022-12-26T09:52:14;-16261.94;;;-139.71;84.62
3598;BME280;1813;52.016;8.714;2022-12-26T09:54:53;-16261.94;;;-139.71;84.67
3598;BME280;1813;52.016;8.714;2022-12-26T09:57:34;-16261.94;;;-139.71;84.46
3598;BME280;1813;52.016;8.714;2022-12-26T10:00:18;-16261.94;;;-139.71;84.08
3598;BME280;1813;52.016;8.714;2022-12-26T10:02:54;-16261.94;;;-139.71;83.72
3598;BME280;1813;52.016;8.714;2022-12-26T10:05:33;-16261.94;;;-139.71;83.42
3598;BME280;1813;52.016;8.714;2022-12-26T10:08:22;-16261.94;;;-139.71;83.34
3598;BME280;1813;52.016;8.714;2022-12-26T10:11:00;-16261.94;;;-139.71;82.95
3598;BME280;1813;52.016;8.714;2022-12-26T10:13:38;-16261.94;;;-139.71;83.07
3598;BME280;1813;52.016;8.714;2022-12-26T10:16:22;-16261.94;;;-139.71;83.41
3598;BME280;1813;52.016;8.714;2022-12-26T10:19:03;-16261.94;;;-139.71;83.71
3598;BME280;1813;52.016;8.714;2022-12-26T10:21:44;-16261.94;;;-139.71;83.72
3598;BME280;1813;52.016;8.714;2022-12-26T10:24:21;-16261.94;;;-139.71;84.70
3598;BME280;1813;52.016;8.714;2022-12-26T10:27:02;-16261.94;;;-139.71;84.60
3598;BME280;1813;52.016;8.714;2022-12-26T10:29:40;-16261.94;;;-139.71;83.26
3598;BME280;1813;52.016;8.714;2022-12-26T10:32:22;-16261.94;;;-139.71;81.71
3598;BME280;1813;52.016;8.714;2022-12-26T10:35:21;-16261.94;;;-139.71;79.74
3598;BME280;1813;52.016;8.714;2022-12-26T10:37:58;-16261.94;;;-139.71;79.12
3598;BME280;1813;52.016;8.714;2022-12-26T10:40:37;-16261.94;;;-139.71;78.79
3598;BME280;1813;52.016;8.714;2022-12-26T10:43:20;-16261.94;;;-139.71;76.92
3598;BME280;1813;52.016;8.714;2022-12-26T10:46:23;-16261.94;;;-139.71;75.86
3598;BME280;1813;52.016;8.714;2022-12-26T10:49:06;-16261.94;;;-139.71;75.61
3598;BME280;1813;52.016;8.714;2022-12-26T10:51:40;-16261.94;;;-139.71;75.60
3598;BME280;1813;52.016;8.714;2022-12-26T10:54:16;-16261.94;;;-139.71;76.03
3598;BME280;1813;52.016;8.714;2022-12-26T10:56:51;-16261.94;;;-139.71;76.22
3598;BME280;1813;52.016;8.714;2022-12-26T10:59:35;-16261.94;;;-139.71;76.44
3598;BME280;1813;52.016;8.714;2022-12-26T11:02:20;-16261.94;;;-139.71;76.66
3598;BME280;1813;52.016;8.714;2022-12-26T11:05:08;-16261.94;;;-139.71;76.62
3598;BME280;1813;52.016;8.714;2022-12-26T11:07:47;-16261.94;;;-139.71;76.81
3598;BME280;1813;52.016;8.714;2022-12-26T11:10:24;-16261.94;;;-139.71;76.86
3598;BME280;1813;52.016;8.714;2022-12-26T11:13:00;-16261.94;;;-139.71;77.09
3598;BME280;1813;52.016;8.714;2022-12-26T11:15:38;-16261.94;;;-139.71;76.94
3598;BME280;1813;52.016;8.714;2022-12-26T11:18:16;-16261.94;;;-139.71;76.93
3598;BME280;1813;52.016;8.714;2022-12-26T11:21:11;-16261.94;;;-139.71;76.79
3598;BME280;1813;52.016;8.714;2022-12-26T11:23:46;-16261.94;;;-139.71;76.56
3598;BME280;1813;52.016;8.714;2022-12-26T11:26:22;-16261.94;;;-139.71;76.25
3598;BME280;1813;52.016;8.714;2022-12-26T11:29:10;-16261.94;;;-139.71;76.29
3598;BME280;1813;52.016;8.714;2022-12-26T11:31:50;-16261.94;;;-139.71;76.37
3598;BME280;1813;52.016;8.714;2022-12-26T11:34:28;-16261.94;;;-139.71;76.40
3598;BME280;1813;52.016;8.714;2022-12-26T11:37:20;-16261.94;;;-139.71;76.30
3598;BME280;1813;52.016;8.714;2022-12-26T11:39:58;-16261.94;;;-139.71;75.99
3598;BME280;1813;52.016;8.714;2022-12-26T11:42:32;-16261.94;;;-139.71;75.78
3598;BME280;1813;52.016;8.714;2022-12-26T11:45:10;-16261.94;;;-139.71;75.35
3598;BME280;1813;52.016;8.714;2022-12-26T11:47:45;-16261.94;;;-139.71;75.49
3598;BME280;1813;52.016;8.714;2022-12-26T11:50:20;-16261.94;;;-139.71;75.19
3598;BME280;1813;52.016;8.714;2022-12-26T11:53:05;-16261.94;;;-139.71;75.14
3598;BME280;1813;52.016;8.714;2022-12-26T11:55:41;-16261.94;;;-139.71;74.86
3598;BME280;1813;52.016;8.714;2022-12-26T11:58:18;-16261.94;;;-139.71;74.92
3598;BME280;1813;52.016;8.714;2022-12-26T12:01:09;-16261.94;;;-139.71;74.52
3598;BME280;1813;52.016;8.714;2022-12-26T12:03:46;-16261.94;;;-139.71;74.59
3598;BME280;1813;52.016;8.714;2022-12-26T12:06:41;-16261.94;;;-139.71;74.26
3598;BME280;1813;52.016;8.714;2022-12-26T12:09:26;-16261.94;;;-139.71;73.96
3598;BME280;1813;52.016;8.714;2022-12-26T12:12:10;-16261.94;;;-139.71;73.54
3598;BME280;1813;52.016;8.714;2022-12-26T12:14:55;-16261.94;;;-139.71;73.45
3598;BME280;1813;52.016;8.714;2022-12-26T12:17:37;-16261.94;;;-139.71;73.59
3598;BME280;1813;52.016;8.714;2022-12-26T12:20:26;-16261.94;;;-139.71;73.29
3598;BME280;1813;52.016;8.714;2022-12-26T12:23:14;-16261.94;;;-139.71;73.31
3598;BME280;1813;52.016;8.714;2022-12-26T12:26:03;-16261.94;;;-139.71;73.70
3598;BME280;1813;52.016;8.714;2022-12-26T12:29:10;-16261.94;;;-139.71;74.35
3598;BME280;1813;52.016;8.714;2022-12-26T12:31:58;-16261.94;;;-139.71;74.44
3598;BME280;1813;52.016;8.714;2022-12-26T12:34:50;-16261.94;;;-139.71;75.28
3598;BME280;1813;52.016;8.714;2022-12-26T12:37:39;-16261.94;;;-139.71;75.98
3598;BME280;1813;52.016;8.714;2022-12-26T12:40:24;-16261.94;;;-139.71;76.50
3598;BME280;1813;52.016;8.714;2022-12-26T12:43:11;-16261.94;;;-139.71;77.76
3598;BME280;1813;52.016;8.714;2022-12-26T12:45:57;-16261.94;;;-139.71;77.27
3598;BME280;1813;52.016;8.714;2022-12-26T12:48:50;-16261.94;;;-139.71;76.99
3598;BME280;1813;52.016;8.714;2022-12-26T12:51:32;-16261.94;;;-139.71;75.79
3598;BME280;1813;52.016;8.714;2022-12-26T12:54:38;-16261.94;;;-139.71;75.64
3598;BME280;1813;52.016;8.714;2022-12-26T12:57:21;-16261.94;;;-139.71;75.68
3598;BME280;1813;52.016;8.714;2022-12-26T13:00:11;-16261.94;;;-139.71;75.90
3598;BME280;1813;52.016;8.714;2022-12-26T13:02:52;-16261.94;;;-139.71;76.05
3598;BME280;1813;52.016;8.714;2022-12-26T13:05:37;-16261.94;;;-139.71;76.42
3598;BME280;1813;52.016;8.714;2022-12-26T13:08:17;-16261.94;;;-139.71;76.53
3598;BME280;1813;52.016;8.714;2022-12-26T13:10:56;-16261.94;;;-139.71;76.42
3598;BME280;1813;52.016;8.714;2022-12-26T13:13:34;-16261.94;;;-139.71;76.42
3598;BME280;1813;52.016;8.714;2022-12-26T13:16:14;-16261.94;;;-139.71;76.52
3598;BME280;1813;52.016;8.714;2022-12-26T13:18:51;-16261.94;;;-139.71;76.80
3598;BME280;1813;52.016;8.714;2022-12-26T13:21:28;-16261.94;;;-139.71;76.75
3598;BME280;1813;52.016;8.714;2022-12-26T13:24:10;-16261.94;;;-139.71;76.43
3598;BME280;1813;52.016;8.714;2022-12-26T13:26:59;-16261.94;;;-139.71;76.66
3598;BME280;1813;52.016;8.714;2022-12-26T13:29:37;-16261.94;;;-139.71;76.70
3598;BME280;1813;52.016;8.714;2022-12-26T13:32:23;-16261.94;;;-139.71;77.16
3598;BME280;1813;52.016;8.714;2022-12-26T13:34:59;-16261.94;;;-139.71;77.41
3598;BME280;1813;52.016;8.714;2022-12-26T13:37:53;-16261.94;;;-139.71;77.92
3598;BME280;1813;52.016;8.714;2022-12-26T13:40:29;-16261.94;;;-139.71;78.45
3598;BME280;1813;52.016;8.714;2022-12-26T13:43:12;-16261.94;;;-139.71;78.54
3598;BME280;1813;52.016;8.714;2022-12-26T13:46:01;-16261.94;;;-139.71;78.42
3598;BME280;1813;52.016;8.714;2022-12-26T13:51:50;-16261.94;;;-139.71;80.12
3598;BME280;1813;52.016;8.714;2022-12-26T13:54:26;-16261.94;;;-139.71;80.83
3598;BME280;1813;52.016;8.714;2022-12-26T13:57:35;-16261.94;;;-139.71;81.29
3598;BME280;1813;52.016;8.714;2022-12-26T14:00:16;-16261.94;;;-139.71;81.33
3598;BME280;1813;52.016;8.714;2022-12-26T14:06:19;-16261.94;;;-139.71;81.66